createdAt,value
2019-05-28T00:01:33.553Z,58.40
2019-05-28T00:04:38.059Z,58.60
2019-05-28T00:07:44.115Z,58.40
2019-05-28T00:10:48.684Z,58.10
2019-05-28T00:13:53.285Z,58.40
2019-05-28T00:16:57.826Z,58.50
2019-05-28T00:20:02.385Z,58.40
2019-05-28T00:23:06.939Z,58.40
2019-05-28T00:26:11.534Z,58.50
2019-05-28T00:29:16.093Z,58.40
2019-05-28T00:32:20.735Z,58.50
2019-05-28T00:35:25.350Z,58.50
2019-05-28T00:38:29.926Z,58.60
2019-05-28T00:41:34.433Z,58.50
2019-05-28T00:44:39.030Z,58.60
2019-05-28T00:47:43.656Z,58.50
2019-05-28T00:50:48.111Z,58.60
2019-05-28T00:53:52.578Z,58.60
2019-05-28T00:56:57.485Z,58.70
2019-05-28T01:00:02.206Z,58.70
2019-05-28T01:03:06.765Z,58.70
2019-05-28T01:06:11.213Z,58.80
2019-05-28T01:09:15.864Z,58.80
2019-05-28T01:12:20.767Z,58.80
2019-05-28T01:15:25.352Z,59.00
2019-05-28T01:18:29.913Z,59.00
2019-05-28T01:21:34.639Z,59.10
2019-05-28T01:24:39.236Z,59.00
2019-05-28T01:27:43.825Z,59.20
2019-05-28T01:30:56.231Z,59.10
2019-05-28T01:33:54.577Z,59.20
2019-05-28T01:36:59.186Z,59.20
2019-05-28T01:40:03.911Z,59.30
2019-05-28T01:43:08.449Z,59.30
2019-05-28T01:46:13.098Z,59.30
2019-05-28T01:49:17.719Z,59.30
2019-05-28T01:52:22.241Z,59.40
2019-05-28T01:55:26.889Z,59.40
2019-05-28T01:58:31.496Z,59.40
2019-05-28T02:01:39.329Z,59.40
2019-05-28T02:04:43.931Z,59.20
2019-05-28T02:07:48.387Z,59.50
2019-05-28T02:10:53.012Z,59.50
2019-05-28T02:13:57.565Z,59.50
2019-05-28T02:17:02.157Z,59.50
2019-05-28T02:20:07.338Z,59.70
2019-05-28T02:23:11.976Z,59.60
2019-05-28T02:26:16.554Z,59.60
2019-05-28T02:29:21.131Z,59.60
2019-05-28T02:32:25.678Z,59.60
2019-05-28T02:35:30.217Z,59.70
2019-05-28T02:38:34.787Z,59.80
2019-05-28T02:41:39.409Z,59.70
2019-05-28T02:44:43.898Z,59.70
2019-05-28T02:47:48.570Z,60.00
2019-05-28T02:50:59.204Z,59.90
2019-05-28T02:54:04.033Z,59.40
2019-05-28T02:57:10.371Z,60.10
2019-05-28T03:00:15.527Z,60.10
2019-05-28T03:03:22.711Z,60.30
2019-05-28T03:06:28.993Z,60.40
2019-05-28T03:09:35.143Z,60.50
2019-05-28T03:12:39.767Z,60.60
2019-05-28T03:15:47.277Z,60.60
2019-05-28T03:18:53.461Z,60.80
2019-05-28T03:22:01.069Z,60.90
2019-05-28T03:25:06.644Z,61.00
2019-05-28T03:28:11.332Z,61.00
2019-05-28T03:31:15.911Z,61.20
2019-05-28T03:34:20.437Z,61.20
2019-05-28T03:37:26.271Z,61.40
2019-05-28T03:40:44.193Z,61.50
2019-05-28T03:43:48.794Z,61.60
2019-05-28T03:46:53.476Z,61.80
2019-05-28T03:49:58.096Z,62.00
2019-05-28T03:53:02.765Z,62.40
2019-05-28T03:56:07.384Z,62.40
2019-05-28T03:59:11.929Z,62.60
2019-05-28T04:02:23.620Z,62.70
2019-05-28T04:05:22.784Z,62.80
2019-05-28T04:08:27.346Z,63.30
2019-05-28T04:11:44.426Z,63.40
2019-05-28T04:14:38.508Z,63.40
2019-05-28T04:17:43.333Z,64.80
2019-05-28T04:20:47.899Z,64.60
2019-05-28T04:23:52.880Z,64.80
2019-05-28T04:26:57.557Z,65.10
2019-05-28T04:30:02.288Z,65.40
2019-05-28T04:33:06.768Z,65.70
2019-05-28T04:36:11.248Z,66.00
2019-05-28T04:39:15.835Z,66.10
2019-05-28T04:42:21.161Z,66.60
2019-05-28T04:45:26.584Z,66.50
2019-05-28T04:48:31.466Z,67.20
2019-05-28T04:51:36.506Z,67.10
2019-05-28T04:54:41.937Z,67.40
2019-05-28T04:57:47.007Z,67.80
2019-05-28T05:00:51.909Z,68.10
2019-05-28T05:03:57.268Z,68.90
2019-05-28T05:07:02.358Z,69.50
2019-05-28T05:10:07.101Z,70.10
2019-05-28T05:13:12.401Z,70.70
2019-05-28T05:16:17.957Z,71.10
2019-05-28T05:19:22.582Z,71.40
2019-05-28T05:22:27.164Z,71.90
2019-05-28T05:25:31.726Z,72.10
2019-05-28T05:28:37.621Z,72.60
2019-05-28T05:31:43.035Z,72.80
2019-05-28T05:34:47.869Z,72.90
2019-05-28T05:37:52.919Z,73.20
2019-05-28T05:40:57.544Z,73.30
2019-05-28T05:44:02.466Z,73.50
2019-05-28T05:47:07.935Z,73.80
2019-05-28T05:50:12.619Z,73.90
2019-05-28T05:53:17.223Z,73.90
2019-05-28T05:56:21.779Z,74.10
2019-05-28T05:59:26.384Z,74.40
2019-05-28T06:02:31.269Z,74.50
2019-05-28T06:05:36.906Z,74.70
2019-05-28T06:08:41.485Z,75.10
2019-05-28T06:11:46.857Z,75.20
2019-05-28T06:14:51.873Z,75.40
2019-05-28T06:17:56.486Z,75.70
2019-05-28T06:21:11.792Z,76.10
2019-05-28T06:24:07.638Z,76.50
2019-05-28T06:27:12.201Z,76.90
2019-05-28T06:30:17.443Z,77.40
2019-05-28T06:33:21.982Z,77.50
2019-05-28T06:36:26.840Z,77.50
2019-05-28T06:39:31.847Z,77.60
2019-05-28T06:42:39.636Z,77.70
2019-05-28T06:45:43.393Z,77.90
2019-05-28T06:48:48.909Z,77.90
2019-05-28T06:51:53.458Z,78.20
2019-05-28T06:54:58.068Z,78.20
2019-05-28T06:58:02.631Z,78.10
2019-05-28T07:01:07.218Z,77.80
2019-05-28T07:04:14.354Z,75.90
2019-05-28T07:07:19.261Z,74.00
2019-05-28T07:10:24.666Z,74.70
2019-05-28T07:13:30.240Z,75.20
2019-05-28T07:16:49.955Z,75.60
2019-05-28T07:19:41.998Z,76.20
2019-05-28T07:22:46.624Z,76.20
2019-05-28T07:25:51.199Z,77.80
2019-05-28T07:28:56.225Z,77.60
2019-05-28T07:32:00.807Z,77.50
2019-05-28T07:35:05.517Z,77.40
2019-05-28T07:38:10.474Z,76.80
2019-05-28T07:41:15.042Z,76.90
2019-05-28T07:44:19.651Z,78.10
2019-05-28T07:47:24.602Z,78.70
2019-05-28T07:50:29.241Z,78.40
2019-05-28T07:53:39.915Z,79.00
2019-05-28T07:56:40.323Z,79.00
2019-05-28T07:59:45.421Z,78.60
2019-05-28T08:02:50.434Z,77.90
2019-05-28T08:05:55.026Z,76.90
2019-05-28T08:09:00.519Z,77.80
2019-05-28T08:12:05.071Z,78.50
2019-05-28T08:15:10.356Z,79.10
2019-05-28T08:18:14.995Z,80.00
2019-05-28T08:21:19.512Z,80.80
2019-05-28T08:24:24.087Z,80.40
2019-05-28T08:27:29.420Z,78.40
2019-05-28T08:30:34.039Z,78.80
2019-05-28T08:33:39.870Z,78.70
2019-05-28T08:36:44.404Z,78.30
2019-05-28T08:39:49.028Z,77.80
2019-05-28T08:42:53.837Z,77.60
2019-05-28T08:45:58.721Z,76.70
2019-05-28T08:49:03.185Z,76.50
2019-05-28T08:52:08.214Z,77.60
2019-05-28T08:55:13.723Z,77.50
2019-05-28T08:58:18.350Z,78.10
2019-05-28T09:01:22.924Z,78.30
2019-05-28T09:04:28.024Z,77.30
2019-05-28T09:07:32.625Z,77.20
2019-05-28T09:10:37.367Z,77.50
2019-05-28T09:13:41.909Z,77.50
2019-05-28T09:16:46.811Z,78.30
2019-05-28T09:19:51.330Z,79.00
2019-05-28T09:22:55.956Z,78.70
2019-05-28T09:26:00.551Z,78.80
2019-05-28T09:29:05.174Z,79.80
2019-05-28T09:32:10.553Z,79.90
2019-05-28T09:35:16.145Z,80.40
2019-05-28T09:38:21.054Z,80.20
2019-05-28T09:41:26.164Z,80.40
2019-05-28T09:44:31.147Z,80.70
2019-05-28T09:47:35.801Z,80.00
2019-05-28T09:50:40.339Z,79.00
2019-05-28T09:53:45.568Z,78.10
2019-05-28T09:56:50.577Z,77.30
2019-05-28T09:59:55.563Z,77.50
2019-05-28T10:03:00.666Z,77.80
2019-05-28T10:06:16.222Z,77.60
2019-05-28T10:09:11.588Z,77.70
2019-05-28T10:12:16.688Z,77.50
2019-05-28T10:15:21.444Z,78.20
2019-05-28T10:18:26.017Z,78.20
2019-05-28T10:21:30.639Z,77.50
2019-05-28T10:24:35.489Z,78.20
2019-05-28T10:28:00.442Z,78.70
2019-05-28T10:30:52.868Z,79.10
2019-05-28T10:33:57.466Z,80.30
2019-05-28T10:37:03.072Z,80.70
2019-05-28T10:40:09.883Z,79.70
2019-05-28T10:43:14.465Z,79.30
2019-05-28T10:46:19.524Z,77.90
2019-05-28T10:49:24.234Z,77.90
2019-05-28T10:52:28.934Z,77.30
2019-05-28T10:55:33.535Z,76.90
2019-05-28T10:58:38.159Z,77.80
2019-05-28T11:01:43.156Z,78.50
2019-05-28T11:04:48.043Z,78.80
2019-05-28T11:07:52.600Z,79.10
2019-05-28T11:10:57.472Z,79.00
2019-05-28T11:14:02.126Z,78.80
2019-05-28T11:17:07.016Z,78.40
2019-05-28T11:20:13.627Z,78.50
2019-05-28T11:23:18.373Z,79.40
2019-05-28T11:26:23.251Z,80.50
2019-05-28T11:29:27.823Z,81.10
2019-05-28T11:32:32.405Z,82.50
2019-05-28T11:35:37.015Z,83.10
2019-05-28T11:38:41.598Z,83.70
2019-05-28T11:41:46.145Z,82.60
2019-05-28T11:44:50.789Z,82.90
2019-05-28T11:47:55.390Z,82.60
2019-05-28T11:50:59.954Z,82.30
2019-05-28T11:54:05.409Z,80.60
2019-05-28T11:57:10.029Z,79.80
2019-05-28T12:00:16.489Z,79.60
2019-05-28T12:03:21.015Z,79.40
2019-05-28T12:06:25.507Z,79.50
2019-05-28T12:09:30.123Z,79.70
2019-05-28T12:12:37.098Z,79.10
2019-05-28T12:15:41.668Z,79.10
2019-05-28T12:18:46.229Z,79.60
2019-05-28T12:21:50.814Z,78.60
2019-05-28T12:24:55.433Z,78.00
2019-05-28T12:27:59.995Z,77.50
2019-05-28T12:31:04.589Z,76.30
2019-05-28T12:34:09.218Z,74.20
2019-05-28T12:37:13.829Z,74.20
2019-05-28T12:40:18.463Z,75.60
2019-05-28T12:43:22.889Z,73.30
2019-05-28T12:46:27.573Z,69.60
2019-05-28T12:49:32.132Z,70.60
2019-05-28T12:52:36.821Z,73.20
2019-05-28T12:55:41.386Z,73.80
2019-05-28T12:58:46.014Z,74.40
2019-05-28T13:01:50.667Z,74.30
2019-05-28T13:04:55.220Z,72.20
2019-05-28T13:08:09.848Z,70.00
2019-05-28T13:11:06.059Z,72.40
2019-05-28T13:14:10.671Z,72.70
2019-05-28T13:17:15.259Z,73.70
2019-05-28T13:20:20.428Z,74.40
2019-05-28T13:23:25.056Z,75.60
2019-05-28T13:26:29.627Z,75.90
2019-05-28T13:29:34.538Z,75.90
2019-05-28T13:32:38.955Z,74.50
2019-05-28T13:35:43.670Z,75.50
2019-05-28T13:38:48.259Z,75.60
2019-05-28T13:41:53.757Z,73.80
2019-05-28T13:44:58.372Z,73.80
2019-05-28T13:48:02.967Z,74.60
2019-05-28T13:51:07.524Z,74.00
2019-05-28T13:54:12.095Z,74.10
2019-05-28T13:57:16.625Z,74.70
2019-05-28T14:00:21.738Z,73.00
2019-05-28T14:03:26.337Z,72.20
2019-05-28T14:06:30.925Z,72.50
2019-05-28T14:09:35.549Z,72.50
2019-05-28T14:12:40.153Z,72.70
2019-05-28T14:15:44.701Z,72.90
2019-05-28T14:18:49.261Z,73.10
2019-05-28T14:21:53.791Z,73.10
2019-05-28T14:24:58.363Z,72.90
2019-05-28T14:28:02.956Z,73.20
2019-05-28T14:31:07.441Z,73.80
2019-05-28T14:34:12.066Z,74.00
2019-05-28T14:37:16.581Z,73.40
2019-05-28T14:40:24.792Z,73.70
2019-05-28T14:43:27.836Z,73.90
2019-05-28T14:46:32.415Z,74.20
2019-05-28T14:49:36.998Z,74.10
2019-05-28T14:52:41.545Z,74.40
2019-05-28T14:55:46.267Z,74.90
2019-05-28T14:58:50.868Z,74.90
2019-05-28T15:01:55.747Z,75.20
2019-05-28T15:05:00.338Z,75.30
2019-05-28T15:08:04.921Z,75.50
2019-05-28T15:11:28.570Z,75.80
2019-05-28T15:14:33.147Z,74.90
2019-05-28T15:17:37.708Z,75.30
2019-05-28T15:20:42.273Z,73.90
2019-05-28T15:23:46.774Z,59.70
2019-05-28T15:26:51.414Z,61.10
2019-05-28T15:29:55.946Z,61.80
2019-05-28T15:33:00.622Z,63.60
2019-05-28T15:36:05.405Z,65.20
2019-05-28T15:39:09.983Z,67.50
2019-05-28T15:42:20.256Z,68.70
2019-05-28T15:45:20.822Z,69.70
2019-05-28T15:48:25.406Z,71.10
2019-05-28T15:51:30.017Z,71.60
2019-05-28T15:54:34.575Z,71.80
2019-05-28T15:57:39.224Z,72.40
2019-05-28T16:00:43.903Z,72.30
2019-05-28T16:03:48.559Z,73.10
2019-05-28T16:06:53.097Z,73.50
2019-05-28T16:09:57.784Z,74.10
2019-05-28T16:13:02.327Z,73.90
2019-05-28T16:16:07.884Z,74.00
2019-05-28T16:19:12.515Z,73.30
2019-05-28T16:22:17.377Z,71.70
2019-05-28T16:25:22.249Z,72.20
2019-05-28T16:28:26.887Z,73.30
2019-05-28T16:31:31.411Z,74.20
2019-05-28T16:34:36.146Z,74.60
2019-05-28T16:37:40.707Z,75.10
2019-05-28T16:40:45.640Z,75.40
2019-05-28T16:43:50.177Z,75.80
2019-05-28T16:47:14.837Z,76.50
2019-05-28T16:50:01.251Z,77.40
2019-05-28T16:53:06.538Z,77.90
2019-05-28T16:56:11.050Z,78.50
2019-05-28T16:59:15.691Z,78.90
2019-05-28T17:02:20.324Z,78.80
2019-05-28T17:05:24.847Z,79.10
2019-05-28T17:08:29.427Z,79.50
2019-05-28T17:11:34.065Z,79.30
2019-05-28T17:14:38.705Z,79.20
2019-05-28T17:17:43.266Z,79.50
2019-05-28T17:20:47.835Z,79.70
2019-05-28T17:23:52.416Z,79.80
2019-05-28T17:26:58.318Z,79.60
2019-05-28T17:30:16.758Z,79.60
2019-05-28T17:33:09.097Z,79.60
2019-05-28T17:36:13.697Z,79.60
2019-05-28T17:39:18.359Z,79.50
2019-05-28T17:42:22.926Z,79.60
2019-05-28T17:45:27.542Z,79.90
2019-05-28T17:48:32.150Z,80.30
2019-05-28T17:51:36.779Z,80.50
2019-05-28T17:54:41.401Z,80.50
2019-05-28T17:57:46.074Z,80.70
2019-05-28T18:00:50.660Z,80.70
2019-05-28T18:03:55.339Z,80.50
2019-05-28T18:06:59.897Z,80.50
2019-05-28T18:10:06.741Z,80.20
2019-05-28T18:13:11.311Z,80.10
2019-05-28T18:16:15.928Z,79.80
2019-05-28T18:19:20.474Z,79.60
2019-05-28T18:22:25.046Z,79.70
2019-05-28T18:25:31.687Z,79.50
2019-05-28T18:28:36.299Z,79.40
2019-05-28T18:31:41.159Z,79.50
2019-05-28T18:34:45.741Z,79.60
2019-05-28T18:37:50.296Z,79.50
2019-05-28T18:40:54.777Z,79.40
2019-05-28T18:44:01.405Z,79.40
2019-05-28T18:47:05.793Z,79.40
2019-05-28T18:50:11.900Z,79.40
2019-05-28T18:53:16.463Z,79.30
2019-05-28T18:56:21.144Z,79.30
2019-05-28T18:59:26.213Z,79.20
2019-05-28T19:02:30.918Z,79.00
2019-05-28T19:05:35.467Z,78.90
2019-05-28T19:08:40.098Z,78.90
2019-05-28T19:11:44.642Z,78.90
2019-05-28T19:14:49.222Z,78.80
2019-05-28T19:17:53.787Z,78.70
2019-05-28T19:20:58.440Z,78.50
2019-05-28T19:24:03.057Z,78.30
2019-05-28T19:27:07.682Z,78.10
2019-05-28T19:30:12.581Z,78.00
2019-05-28T19:33:17.202Z,78.10
2019-05-28T19:36:21.855Z,78.60
2019-05-28T19:39:27.690Z,79.40
2019-05-28T19:42:32.219Z,79.80
2019-05-28T19:45:37.453Z,80.20
2019-05-28T19:48:42.085Z,80.30
2019-05-28T19:51:46.691Z,80.50
2019-05-28T19:54:51.264Z,80.60
2019-05-28T19:57:55.860Z,80.60
2019-05-28T20:01:00.488Z,80.30
2019-05-28T20:04:05.237Z,80.20
2019-05-28T20:07:09.933Z,80.00
2019-05-28T20:10:14.915Z,79.80
2019-05-28T20:13:19.537Z,79.70
2019-05-28T20:16:24.167Z,79.70
2019-05-28T20:19:28.765Z,79.50
2019-05-28T20:22:33.429Z,79.50
2019-05-28T20:25:38.036Z,79.60
2019-05-28T20:28:42.567Z,79.70
2019-05-28T20:31:47.273Z,79.70
2019-05-28T20:34:51.822Z,79.70
2019-05-28T20:37:56.489Z,79.50
2019-05-28T20:41:02.094Z,79.50
2019-05-28T20:44:06.776Z,79.30
2019-05-28T20:47:11.942Z,79.20
2019-05-28T20:50:16.909Z,79.30
2019-05-28T20:53:35.189Z,79.40
2019-05-28T20:56:27.701Z,79.40
2019-05-28T20:59:32.297Z,79.40
2019-05-28T21:02:36.952Z,79.20
2019-05-28T21:05:41.794Z,79.30
2019-05-28T21:08:46.380Z,79.30
2019-05-28T21:11:50.993Z,79.40
2019-05-28T21:14:56.800Z,79.30
2019-05-28T21:18:01.454Z,79.40
2019-05-28T21:21:06.283Z,79.30
2019-05-28T21:24:10.830Z,79.40
2019-05-28T21:27:15.444Z,79.40
2019-05-28T21:30:20.262Z,79.50
2019-05-28T21:33:24.851Z,79.60
2019-05-28T21:36:29.408Z,79.70
2019-05-28T21:39:34.008Z,79.80
2019-05-28T21:42:38.527Z,79.70
2019-05-28T21:45:43.098Z,79.60
2019-05-28T21:48:47.686Z,79.60
2019-05-28T21:51:52.745Z,79.80
2019-05-28T21:54:57.452Z,79.90
2019-05-28T21:58:02.063Z,79.80
2019-05-28T22:01:12.508Z,79.70
2019-05-28T22:04:17.129Z,79.80
2019-05-28T22:07:21.727Z,79.80
2019-05-28T22:10:26.275Z,79.80
2019-05-28T22:13:30.891Z,79.90
2019-05-28T22:16:35.457Z,80.00
2019-05-28T22:19:40.337Z,80.20
2019-05-28T22:22:45.363Z,80.10
2019-05-28T22:25:49.944Z,80.20
2019-05-28T22:28:55.321Z,80.20
2019-05-28T22:32:00.704Z,80.20
2019-05-28T22:35:05.532Z,80.40
2019-05-28T22:38:10.146Z,80.30
2019-05-28T22:41:14.776Z,80.30
2019-05-28T22:44:19.380Z,80.30
2019-05-28T22:47:23.960Z,80.30
2019-05-28T22:50:28.578Z,80.30
2019-05-28T22:53:33.169Z,80.40
2019-05-28T22:56:37.755Z,80.40
2019-05-28T22:59:42.289Z,80.30
2019-05-28T23:02:46.903Z,80.30
2019-05-28T23:05:54.253Z,80.40
2019-05-28T23:08:59.298Z,80.40
2019-05-28T23:12:03.901Z,80.40
2019-05-28T23:15:10.322Z,81.00
2019-05-28T23:18:15.382Z,80.50
2019-05-28T23:21:19.880Z,80.50
2019-05-28T23:24:24.447Z,80.40
2019-05-28T23:27:29.076Z,80.30
2019-05-28T23:30:33.662Z,80.40
2019-05-28T23:33:38.202Z,80.30
2019-05-28T23:36:42.792Z,80.30
2019-05-28T23:39:47.393Z,80.20
2019-05-28T23:42:52.034Z,80.30
2019-05-28T23:45:56.577Z,80.50
2019-05-28T23:49:01.206Z,80.50
2019-05-28T23:52:06.597Z,80.40
2019-05-28T23:55:11.918Z,80.50
2019-05-28T23:58:16.422Z,80.50
